createdAt,value
2023-09-27T00:02:24.160Z,100115.66
2023-09-27T00:04:52.317Z,100113.47
2023-09-27T00:07:19.745Z,100119.59
2023-09-27T00:09:46.777Z,100125.19
2023-09-27T00:12:14.118Z,100118.41
2023-09-27T00:14:41.069Z,100126.38
2023-09-27T00:17:08.484Z,100127.22
2023-09-27T00:19:35.711Z,100128.75
2023-09-27T00:22:04.980Z,100127.00
2023-09-27T00:24:32.001Z,100125.84
2023-09-27T00:26:59.236Z,100130.88
2023-09-27T00:29:26.802Z,100118.94
2023-09-27T00:31:54.213Z,100128.53
2023-09-27T00:34:21.239Z,100141.69
2023-09-27T00:36:48.455Z,100135.72
2023-09-27T00:39:15.533Z,100138.84
2023-09-27T00:41:42.948Z,100137.19
2023-09-27T00:44:10.068Z,100136.03
2023-09-27T00:46:39.982Z,100133.81
2023-09-27T00:49:09.507Z,100129.38
2023-09-27T00:51:38.077Z,100133.13
2023-09-27T00:54:08.102Z,100130.31
2023-09-27T00:56:37.246Z,100127.88
2023-09-27T00:59:06.500Z,100132.88
2023-09-27T01:01:35.470Z,100129.03
2023-09-27T01:04:04.119Z,100135.91
2023-09-27T01:06:32.656Z,100133.72
2023-09-27T01:09:02.023Z,100135.22
2023-09-27T01:11:30.588Z,100144.38
2023-09-27T01:13:58.016Z,100144.81
2023-09-27T01:16:27.314Z,100139.31
2023-09-27T01:18:54.515Z,100135.47
2023-09-27T01:21:22.226Z,100139.19
2023-09-27T01:23:51.520Z,100147.16
2023-09-27T01:26:22.718Z,100140.59
2023-09-27T01:28:50.160Z,100149.97
2023-09-27T01:31:17.699Z,100149.72
2023-09-27T01:33:44.896Z,100146.91
2023-09-27T01:36:12.979Z,100137.88
2023-09-27T01:38:40.194Z,100144.56
2023-09-27T01:41:07.465Z,100153.09
2023-09-27T01:43:34.458Z,100146.44
2023-09-27T01:46:04.096Z,100148.41
2023-09-27T01:48:31.250Z,100152.59
2023-09-27T01:50:58.688Z,100147.66
2023-09-27T01:53:26.904Z,100150.59
2023-09-27T01:55:54.287Z,100149.41
2023-09-27T01:58:21.413Z,100149.03
2023-09-27T02:00:48.819Z,100144.13
2023-09-27T02:03:15.868Z,100147.88
2023-09-27T02:05:43.425Z,100151.84
2023-09-27T02:08:12.957Z,100149.59
2023-09-27T02:10:40.360Z,100144.66
2023-09-27T02:13:07.327Z,100158.56
2023-09-27T02:15:34.656Z,100149.28
2023-09-27T02:18:04.302Z,100146.59
2023-09-27T02:20:31.640Z,100144.38
2023-09-27T02:22:59.676Z,100139.47
2023-09-27T02:25:27.228Z,100143.63
2023-09-27T02:27:54.299Z,100143.63
2023-09-27T02:30:21.779Z,100138.72
2023-09-27T02:32:49.040Z,100144.56
2023-09-27T02:35:18.521Z,100140.66
2023-09-27T02:37:45.645Z,100138.47
2023-09-27T02:40:17.236Z,100148.59
2023-09-27T02:42:48.173Z,100153.38
2023-09-27T02:45:16.005Z,100136.06
2023-09-27T02:47:48.066Z,100137.69
2023-09-27T02:50:16.714Z,100145.16
2023-09-27T02:52:46.520Z,100144.00
2023-09-27T02:55:15.262Z,100142.97
2023-09-27T02:57:43.854Z,100144.44
2023-09-27T03:00:12.622Z,100150.25
2023-09-27T03:02:39.907Z,100139.16
2023-09-27T03:05:09.313Z,100136.66
2023-09-27T03:07:39.183Z,100145.22
2023-09-27T03:10:09.717Z,100144.59
2023-09-27T03:12:36.929Z,100139.69
2023-09-27T03:15:12.571Z,100143.41
2023-09-27T03:17:43.741Z,100140.56
2023-09-27T03:20:20.357Z,100142.66
2023-09-27T03:22:48.905Z,100140.41
2023-09-27T03:25:18.575Z,100142.50
2023-09-27T03:27:46.730Z,100149.38
2023-09-27T03:30:14.002Z,100158.47
2023-09-27T03:32:42.099Z,100163.25
2023-09-27T03:35:10.260Z,100164.75
2023-09-27T03:37:37.668Z,100173.84
2023-09-27T03:40:17.197Z,100172.19
2023-09-27T03:42:46.980Z,100171.56
2023-09-27T03:45:16.525Z,100178.25
2023-09-27T03:47:47.454Z,100174.25
2023-09-27T03:50:19.450Z,100174.03
2023-09-27T03:52:46.687Z,100174.41
2023-09-27T03:55:14.261Z,100179.41
2023-09-27T03:57:42.372Z,100175.28
2023-09-27T04:00:20.648Z,100181.25
2023-09-27T04:02:49.416Z,100169.91
2023-09-27T04:05:24.104Z,100173.03
2023-09-27T04:07:51.188Z,100168.28
2023-09-27T04:10:20.740Z,100165.00
2023-09-27T04:12:48.690Z,100167.06
2023-09-27T04:15:16.097Z,100167.50
2023-09-27T04:17:43.287Z,100169.16
2023-09-27T04:20:20.293Z,100171.25
2023-09-27T04:22:49.944Z,100172.50
2023-09-27T04:25:18.911Z,100175.41
2023-09-27T04:27:51.301Z,100174.19
2023-09-27T04:30:21.009Z,100181.03
2023-09-27T04:32:55.032Z,100171.31
2023-09-27T04:35:22.906Z,100177.53
2023-09-27T04:37:50.743Z,100174.59
2023-09-27T04:40:18.700Z,100181.47
2023-09-27T04:42:47.234Z,100180.88
2023-09-27T04:45:15.508Z,100189.13
2023-09-27T04:47:45.858Z,100184.22
2023-09-27T04:50:14.960Z,100187.69
2023-09-27T04:52:43.072Z,100185.00
2023-09-27T04:55:11.273Z,100187.09
2023-09-27T04:57:38.415Z,100185.47
2023-09-27T05:00:15.655Z,100183.81
2023-09-27T05:02:43.215Z,100188.75
2023-09-27T05:05:10.914Z,100182.56
2023-09-27T05:07:38.709Z,100196.56
2023-09-27T05:10:07.134Z,100190.38
2023-09-27T05:12:34.358Z,100194.47
2023-09-27T05:15:01.865Z,100188.44
2023-09-27T05:17:29.036Z,100193.19
2023-09-27T05:19:56.520Z,100189.88
2023-09-27T05:22:23.708Z,100189.22
2023-09-27T05:24:51.057Z,100200.94
2023-09-27T05:27:18.844Z,100200.03
2023-09-27T05:29:46.733Z,100201.25
2023-09-27T05:32:13.834Z,100207.38
2023-09-27T05:34:41.179Z,100199.84
2023-09-27T05:37:08.405Z,100207.41
2023-09-27T05:39:35.664Z,100210.84
2023-09-27T05:42:02.736Z,100209.97
2023-09-27T05:44:30.093Z,100211.31
2023-09-27T05:46:57.345Z,100211.59
2023-09-27T05:49:25.815Z,100211.31
2023-09-27T05:51:53.684Z,100205.78
2023-09-27T05:54:21.102Z,100212.63
2023-09-27T05:56:52.738Z,100210.03
2023-09-27T05:59:20.397Z,100209.28
2023-09-27T06:01:48.494Z,100205.56
2023-09-27T06:04:15.907Z,100213.44
2023-09-27T06:06:43.007Z,100210.56
2023-09-27T06:09:10.969Z,100213.16
2023-09-27T06:11:38.355Z,100217.88
2023-09-27T06:14:12.146Z,100227.13
2023-09-27T06:16:40.484Z,100217.81
2023-09-27T06:19:09.685Z,100225.44
2023-09-27T06:21:36.971Z,100209.22
2023-09-27T06:24:06.294Z,100211.78
2023-09-27T06:26:33.615Z,100214.78
2023-09-27T06:29:01.147Z,100223.88
2023-09-27T06:31:30.214Z,100225.59
2023-09-27T06:33:57.625Z,100222.34
2023-09-27T06:36:24.754Z,100217.22
2023-09-27T06:38:52.693Z,100214.94
2023-09-27T06:41:20.013Z,100217.63
2023-09-27T06:43:47.405Z,100209.59
2023-09-27T06:46:17.915Z,100214.44
2023-09-27T06:48:45.508Z,100217.94
2023-09-27T06:51:14.816Z,100214.41
2023-09-27T06:53:43.768Z,100216.50
2023-09-27T06:56:10.953Z,100214.47
2023-09-27T06:58:38.681Z,100219.31
2023-09-27T07:01:05.838Z,100219.84
2023-09-27T07:03:35.340Z,100217.81
2023-09-27T07:06:04.343Z,100219.94
2023-09-27T07:08:31.806Z,100221.50
2023-09-27T07:11:10.368Z,100227.34
2023-09-27T07:13:43.860Z,100231.53
2023-09-27T07:16:28.131Z,100225.41
2023-09-27T07:19:02.499Z,100230.91
2023-09-27T07:21:31.515Z,100225.94
2023-09-27T07:23:58.789Z,100230.59
2023-09-27T07:26:25.950Z,100219.50
2023-09-27T07:28:53.714Z,100228.19
2023-09-27T07:31:21.215Z,100229.84
2023-09-27T07:33:55.731Z,100234.75
2023-09-27T07:36:26.013Z,100236.94
2023-09-27T07:38:56.589Z,100240.97
2023-09-27T07:41:23.636Z,100241.50
2023-09-27T07:43:51.850Z,100235.19
2023-09-27T07:46:20.524Z,100244.97
2023-09-27T07:48:47.995Z,100234.59
2023-09-27T07:51:21.163Z,100233.44
2023-09-27T07:53:48.633Z,100240.72
2023-09-27T07:56:24.575Z,100241.22
2023-09-27T07:58:54.811Z,100226.75
2023-09-27T08:01:23.832Z,100229.91
2023-09-27T08:04:13.593Z,100232.03
2023-09-27T08:06:41.149Z,100224.75
2023-09-27T08:09:17.628Z,100225.63
2023-09-27T08:11:51.984Z,100220.09
2023-09-27T08:14:20.666Z,100232.47
2023-09-27T08:16:48.097Z,100218.56
2023-09-27T08:19:17.110Z,100219.88
2023-09-27T08:21:44.561Z,100227.50
2023-09-27T08:24:11.858Z,100222.81
2023-09-27T08:26:38.942Z,100224.75
2023-09-27T08:29:06.980Z,100221.88
2023-09-27T08:31:37.259Z,100220.16
2023-09-27T08:34:05.263Z,100221.06
2023-09-27T08:36:32.508Z,100221.50
2023-09-27T08:39:00.022Z,100216.44
2023-09-27T08:41:29.298Z,100217.03
2023-09-27T08:43:58.524Z,100219.72
2023-09-27T08:46:26.524Z,100216.84
2023-09-27T08:48:57.254Z,100218.38
2023-09-27T08:51:26.569Z,100214.75
2023-09-27T08:53:54.149Z,100215.88
2023-09-27T08:56:23.162Z,100208.34
2023-09-27T08:58:51.491Z,100204.34
2023-09-27T09:01:19.550Z,100209.19
2023-09-27T09:03:48.056Z,100195.53
2023-09-27T09:06:16.864Z,100195.13
2023-09-27T09:08:44.598Z,100196.25
2023-09-27T09:11:17.866Z,100194.63
2023-09-27T09:14:04.993Z,100189.38
2023-09-27T09:16:41.409Z,100185.56
2023-09-27T09:19:37.472Z,100187.22
2023-09-27T09:22:12.855Z,100184.59
2023-09-27T09:24:43.224Z,100177.34
2023-09-27T09:27:17.287Z,100186.00
2023-09-27T09:29:53.983Z,100178.59
2023-09-27T09:32:29.498Z,100176.81
2023-09-27T09:34:57.227Z,100174.75
2023-09-27T09:37:30.758Z,100173.91
2023-09-27T09:40:15.925Z,100179.88
2023-09-27T09:42:44.532Z,100173.91
2023-09-27T09:45:13.738Z,100174.78
2023-09-27T09:47:45.576Z,100172.13
2023-09-27T09:50:18.560Z,100177.09
2023-09-27T09:58:43.752Z,100171.59
2023-09-27T10:01:19.734Z,100177.75
2023-09-27T10:03:51.479Z,100170.81
2023-09-27T10:06:36.979Z,100165.78
2023-09-27T10:09:16.081Z,100172.94
2023-09-27T10:11:47.929Z,100157.50
2023-09-27T10:14:19.408Z,100176.84
2023-09-27T10:16:49.373Z,100161.81
2023-09-27T10:19:30.753Z,100162.81
2023-09-27T10:22:07.088Z,100160.59
2023-09-27T10:24:37.166Z,100167.56
2023-09-27T10:27:04.395Z,100168.56
2023-09-27T10:29:31.885Z,100164.38
2023-09-27T10:31:58.909Z,100162.94
2023-09-27T10:34:29.083Z,100154.34
2023-09-27T10:37:17.352Z,100153.38
2023-09-27T10:40:22.790Z,100156.91
2023-09-27T10:42:50.224Z,100148.91
2023-09-27T10:45:18.425Z,100158.56
2023-09-27T10:47:48.011Z,100152.44
2023-09-27T10:50:17.847Z,100147.03
2023-09-27T10:52:45.065Z,100137.13
2023-09-27T10:55:14.506Z,100136.47
2023-09-27T10:57:42.662Z,100128.88
2023-09-27T11:00:13.755Z,100136.81
2023-09-27T11:02:42.900Z,100131.28
2023-09-27T11:05:10.897Z,100132.38
2023-09-27T11:07:51.636Z,100119.59
2023-09-27T11:10:31.732Z,100123.78
2023-09-27T11:13:07.871Z,100118.16
2023-09-27T11:15:35.231Z,100107.53
2023-09-27T11:18:02.383Z,100109.47
2023-09-27T11:20:34.287Z,100111.56
2023-09-27T11:23:05.098Z,100106.91
2023-09-27T11:25:37.714Z,100118.03
2023-09-27T11:28:16.190Z,100106.69
2023-09-27T11:30:44.014Z,100106.84
2023-09-27T11:33:14.617Z,100108.22
2023-09-27T11:35:50.393Z,100110.94
2023-09-27T11:38:17.728Z,100096.72
2023-09-27T11:40:49.744Z,100104.69
2023-09-27T11:43:18.730Z,100101.06
2023-09-27T11:45:49.232Z,100086.84
2023-09-27T11:48:18.118Z,100081.16
2023-09-27T11:50:45.682Z,100083.84
2023-09-27T11:53:13.743Z,100084.06
2023-09-27T11:55:42.394Z,100076.22
2023-09-27T11:58:10.141Z,100083.84
2023-09-27T12:00:37.492Z,100076.47
2023-09-27T12:03:05.872Z,100083.31
2023-09-27T12:05:38.680Z,100077.72
2023-09-27T12:08:07.945Z,100072.28
2023-09-27T12:10:35.495Z,100074.94
2023-09-27T12:13:03.676Z,100077.81
2023-09-27T12:15:30.982Z,100067.44
2023-09-27T12:17:58.181Z,100058.97
2023-09-27T12:22:59.552Z,100069.25
2023-09-27T12:25:28.088Z,100059.97
2023-09-27T12:27:55.256Z,100067.09
2023-09-27T12:30:22.502Z,100050.78
2023-09-27T12:32:49.789Z,100045.59
2023-09-27T12:35:17.389Z,100050.47
2023-09-27T12:37:44.564Z,100045.75
2023-09-27T12:40:12.874Z,100047.50
2023-09-27T12:42:41.047Z,100049.25
2023-09-27T12:45:09.310Z,100044.31
2023-09-27T12:47:37.388Z,100046.59
2023-09-27T12:50:07.708Z,100049.13
2023-09-27T12:52:35.598Z,100042.63
2023-09-27T12:55:03.265Z,100040.75
2023-09-27T12:57:30.410Z,100036.94
2023-09-27T12:59:57.990Z,100034.72
2023-09-27T13:02:25.886Z,100030.91
2023-09-27T13:04:53.808Z,100034.13
2023-09-27T13:07:20.906Z,100031.66
2023-09-27T13:09:48.205Z,100024.50
2023-09-27T13:12:15.604Z,100020.34
2023-09-27T13:14:42.978Z,100019.59
2023-09-27T13:17:11.140Z,100018.63
2023-09-27T13:19:38.660Z,100017.72
2023-09-27T13:22:05.999Z,100019.34
2023-09-27T13:24:33.362Z,100012.03
2023-09-27T13:27:10.527Z,100016.06
2023-09-27T13:29:40.379Z,100008.19
2023-09-27T13:32:07.672Z,100007.34
2023-09-27T13:34:35.669Z,100008.66
2023-09-27T13:37:03.155Z,100000.44
2023-09-27T13:39:31.046Z,99996.47
2023-09-27T13:41:58.317Z,100002.25
2023-09-27T13:44:25.625Z,99997.75
2023-09-27T13:46:53.065Z,99999.53
2023-09-27T13:49:25.410Z,99996.81
2023-09-27T13:51:52.510Z,99989.63
2023-09-27T13:54:20.836Z,99983.13
2023-09-27T13:56:48.415Z,99982.38
2023-09-27T13:59:15.876Z,99979.06
2023-09-27T14:01:43.009Z,99976.50
2023-09-27T14:04:10.452Z,99972.56
2023-09-27T14:06:37.549Z,99974.22
2023-09-27T14:09:05.032Z,99968.25
2023-09-27T14:11:32.250Z,99964.56
2023-09-27T14:13:59.537Z,99963.09
2023-09-27T14:16:26.756Z,99975.38
2023-09-27T14:18:54.871Z,99970.25
2023-09-27T14:21:22.574Z,99974.97
2023-09-27T14:23:49.955Z,99969.16
2023-09-27T14:26:20.296Z,99968.19
2023-09-27T14:28:48.823Z,99972.06
2023-09-27T14:31:19.095Z,99971.28
2023-09-27T14:33:46.581Z,99969.31
2023-09-27T14:36:13.692Z,99955.91
2023-09-27T14:38:41.299Z,99957.53
2023-09-27T14:41:11.235Z,99956.50
2023-09-27T14:43:39.366Z,99956.84
2023-09-27T14:46:14.121Z,99947.50
2023-09-27T14:48:41.838Z,99950.38
2023-09-27T14:51:13.076Z,99947.25
2023-09-27T14:53:42.371Z,99951.25
2023-09-27T14:56:11.010Z,99957.56
2023-09-27T14:58:38.476Z,99953.47
2023-09-27T15:01:05.996Z,99950.59
2023-09-27T15:03:34.459Z,99947.22
2023-09-27T15:06:03.339Z,99945.88
2023-09-27T15:08:34.000Z,99940.03
2023-09-27T15:11:02.043Z,99940.97
2023-09-27T15:13:31.112Z,99937.00
2023-09-27T15:16:02.574Z,99943.16
2023-09-27T15:18:30.609Z,99942.94
2023-09-27T15:20:57.650Z,99942.41
2023-09-27T15:23:31.344Z,99941.06
2023-09-27T15:25:59.730Z,99941.53
2023-09-27T15:28:27.292Z,99937.31
2023-09-27T15:30:54.537Z,99941.69
2023-09-27T15:33:23.411Z,99945.28
2023-09-27T15:36:03.685Z,99942.38
2023-09-27T15:38:30.990Z,99943.16
2023-09-27T15:40:58.001Z,99939.94
2023-09-27T15:43:25.408Z,99953.16
2023-09-27T15:46:01.459Z,99937.31
2023-09-27T15:48:33.031Z,99940.72
2023-09-27T15:51:05.503Z,99938.56
2023-09-27T15:53:34.528Z,99941.41
2023-09-27T15:56:05.026Z,99934.97
2023-09-27T15:58:33.413Z,99938.31
2023-09-27T16:01:02.639Z,99931.81
2023-09-27T16:03:30.996Z,99932.25
2023-09-27T16:05:59.875Z,99930.13
2023-09-27T16:08:28.587Z,99934.94
2023-09-27T16:10:56.942Z,99936.66
2023-09-27T16:13:24.552Z,99939.50
2023-09-27T16:15:53.400Z,99944.28
2023-09-27T16:18:37.651Z,99933.28
2023-09-27T16:21:05.226Z,99943.84
2023-09-27T16:23:32.885Z,99937.13
2023-09-27T16:26:00.819Z,99935.09
2023-09-27T16:28:30.016Z,99943.75
2023-09-27T16:30:58.532Z,99928.53
2023-09-27T16:33:27.281Z,99932.50
2023-09-27T16:35:54.537Z,99925.00
2023-09-27T16:38:21.871Z,99930.09
2023-09-27T16:40:49.034Z,99925.81
2023-09-27T16:43:18.271Z,99930.88
2023-09-27T16:45:45.579Z,99928.84
2023-09-27T16:48:13.016Z,99925.19
2023-09-27T16:50:40.975Z,99924.75
2023-09-27T16:53:08.636Z,99913.44
2023-09-27T16:55:36.505Z,99921.00
2023-09-27T16:58:06.819Z,99917.03
2023-09-27T17:00:34.141Z,99922.06
2023-09-27T17:03:01.693Z,99923.28
2023-09-27T17:05:28.940Z,99922.88
2023-09-27T17:07:56.251Z,99924.59
2023-09-27T17:10:23.588Z,99920.94
2023-09-27T17:12:50.959Z,99918.06
2023-09-27T17:15:20.675Z,99920.66
2023-09-27T17:17:48.053Z,99917.78
2023-09-27T17:20:15.204Z,99917.34
2023-09-27T17:22:42.630Z,99917.72
2023-09-27T17:25:11.037Z,99918.91
2023-09-27T17:27:38.842Z,99918.47
2023-09-27T17:30:08.494Z,99911.97
2023-09-27T17:32:36.836Z,99914.50
2023-09-27T17:35:05.969Z,99911.63
2023-09-27T17:37:33.642Z,99910.94
2023-09-27T17:40:04.660Z,99913.53
2023-09-27T17:42:32.116Z,99911.44
2023-09-27T17:44:59.140Z,99908.25
2023-09-27T17:47:26.697Z,99914.34
2023-09-27T17:49:53.911Z,99907.09
2023-09-27T17:52:22.015Z,99912.03
2023-09-27T17:54:49.582Z,99913.44
2023-09-27T17:57:18.507Z,99910.75
2023-09-27T17:59:46.609Z,99915.13
2023-09-27T18:02:13.996Z,99904.56
2023-09-27T18:04:41.244Z,99910.34
2023-09-27T18:07:08.735Z,99904.44
2023-09-27T18:09:37.111Z,99903.38
2023-09-27T18:12:05.337Z,99906.44
2023-09-27T18:14:32.374Z,99904.88
2023-09-27T18:17:00.552Z,99910.63
2023-09-27T18:19:29.306Z,99904.19
2023-09-27T18:21:57.497Z,99906.44
2023-09-27T18:24:25.867Z,99907.56
2023-09-27T18:26:53.277Z,99905.41
2023-09-27T18:29:20.487Z,99906.00
2023-09-27T18:31:48.239Z,99909.84
2023-09-27T18:34:15.390Z,99913.13
2023-09-27T18:36:42.969Z,99911.53
2023-09-27T18:39:10.185Z,99915.38
2023-09-27T18:41:37.904Z,99919.50
2023-09-27T18:44:05.646Z,99920.66
2023-09-27T18:46:35.004Z,99914.94
2023-09-27T18:49:04.259Z,99916.34
2023-09-27T18:51:31.933Z,99913.41
2023-09-27T18:53:59.386Z,99909.59
2023-09-27T18:56:27.125Z,99913.44
2023-09-27T18:58:59.784Z,99909.94
2023-09-27T19:01:28.069Z,99913.50
2023-09-27T19:03:59.388Z,99912.94
2023-09-27T19:06:27.641Z,99908.06
2023-09-27T19:08:55.518Z,99910.81
2023-09-27T19:11:23.149Z,99906.50
2023-09-27T19:13:50.464Z,99908.69
2023-09-27T19:16:17.993Z,99908.16
2023-09-27T19:18:45.076Z,99912.81
2023-09-27T19:21:12.611Z,99907.41
2023-09-27T19:23:40.892Z,99918.28
2023-09-27T19:26:08.695Z,99919.88
2023-09-27T19:28:37.413Z,99915.28
2023-09-27T19:31:08.472Z,99925.09
2023-09-27T19:33:42.581Z,99920.47
2023-09-27T19:36:20.976Z,99925.09
2023-09-27T19:38:49.175Z,99924.03
2023-09-27T19:41:16.979Z,99923.75
2023-09-27T19:43:44.393Z,99923.22
2023-09-27T19:46:12.619Z,99913.41
2023-09-27T19:48:44.924Z,99909.34
2023-09-27T19:51:23.731Z,99918.56
2023-09-27T19:53:53.065Z,99922.66
2023-09-27T19:56:22.503Z,99912.06
2023-09-27T19:58:50.248Z,99918.28
2023-09-27T20:01:37.947Z,99913.69
2023-09-27T20:04:06.161Z,99916.94
2023-09-27T20:06:40.975Z,99915.31
2023-09-27T20:09:11.061Z,99918.03
2023-09-27T20:11:38.971Z,99919.09
2023-09-27T20:14:06.728Z,99912.59
2023-09-27T20:16:34.324Z,99924.78
2023-09-27T20:19:05.337Z,99913.69
2023-09-27T20:21:35.984Z,99918.53
2023-09-27T20:24:04.187Z,99910.38
2023-09-27T20:26:31.498Z,99911.47
2023-09-27T20:28:58.747Z,99908.75
2023-09-27T20:31:26.161Z,99914.41
2023-09-27T20:33:53.731Z,99912.47
2023-09-27T20:36:21.349Z,99911.66
2023-09-27T20:38:48.565Z,99908.66
2023-09-27T20:41:21.637Z,99907.56
2023-09-27T20:43:49.186Z,99912.97
2023-09-27T20:46:17.399Z,99911.28
2023-09-27T20:48:44.908Z,99912.09
2023-09-27T20:51:15.289Z,99918.59
2023-09-27T20:53:42.429Z,99916.66
2023-09-27T20:56:10.660Z,99914.50
2023-09-27T20:58:41.623Z,99913.38
2023-09-27T21:01:29.216Z,99909.84
2023-09-27T21:03:57.423Z,99920.38
2023-09-27T21:06:29.616Z,99914.38
2023-09-27T21:09:04.400Z,99908.66
2023-09-27T21:11:32.502Z,99912.16
2023-09-27T21:14:02.783Z,99907.81
2023-09-27T21:16:34.194Z,99907.75
2023-09-27T21:19:02.215Z,99903.13
2023-09-27T21:21:31.135Z,99902.81
2023-09-27T21:23:58.409Z,99907.13
2023-09-27T21:26:26.098Z,99905.44
2023-09-27T21:28:53.220Z,99904.34
2023-09-27T21:31:21.261Z,99896.75
2023-09-27T21:33:48.658Z,99901.84
2023-09-27T21:36:18.191Z,99894.53
2023-09-27T21:38:45.513Z,99905.84
2023-09-27T21:41:12.945Z,99899.84
2023-09-27T21:43:40.355Z,99902.00
2023-09-27T21:46:20.807Z,99900.38
2023-09-27T21:48:51.648Z,99899.72
2023-09-27T21:51:19.343Z,99899.44
2023-09-27T21:53:46.812Z,99893.47
2023-09-27T21:56:14.818Z,99900.75
2023-09-27T21:58:43.293Z,99898.03
2023-09-27T22:01:15.088Z,99900.69
2023-09-27T22:03:43.126Z,99899.81
2023-09-27T22:06:11.469Z,99901.66
2023-09-27T22:08:38.741Z,99898.91
2023-09-27T22:11:06.046Z,99898.56
2023-09-27T22:13:39.129Z,99898.25
2023-09-27T22:16:11.343Z,99899.28
2023-09-27T22:18:49.232Z,99892.78
2023-09-27T22:21:32.185Z,99903.00
2023-09-27T22:24:09.831Z,99892.66
2023-09-27T22:26:38.860Z,99886.13
2023-09-27T22:29:09.966Z,99889.56
2023-09-27T22:31:39.487Z,99883.88
2023-09-27T22:34:23.650Z,99889.78
2023-09-27T22:36:54.354Z,99885.38
2023-09-27T22:39:22.829Z,99886.41
2023-09-27T22:41:53.328Z,99886.91
2023-09-27T22:44:21.930Z,99887.91
2023-09-27T22:46:54.849Z,99874.94
2023-09-27T22:49:24.438Z,99887.28
2023-09-27T22:51:52.487Z,99886.16
2023-09-27T22:54:22.879Z,99881.25
2023-09-27T22:56:53.445Z,99890.09
2023-09-27T22:59:22.378Z,99889.78
2023-09-27T23:01:52.172Z,99890.53
2023-09-27T23:04:23.944Z,99891.28
2023-09-27T23:07:03.796Z,99891.22
2023-09-27T23:09:38.219Z,99885.25
2023-09-27T23:12:20.315Z,99894.63
2023-09-27T23:15:07.171Z,99889.72
2023-09-27T23:17:56.604Z,99888.03
2023-09-27T23:20:29.963Z,99893.59
2023-09-27T23:22:58.530Z,99883.81
2023-09-27T23:25:41.329Z,99885.38
2023-09-27T23:28:08.575Z,99883.16
2023-09-27T23:30:35.877Z,99885.78
2023-09-27T23:33:04.531Z,99879.75
2023-09-27T23:35:32.299Z,99874.84
2023-09-27T23:38:10.817Z,99879.91
2023-09-27T23:40:42.481Z,99874.69
2023-09-27T23:43:10.377Z,99875.75
2023-09-27T23:45:38.863Z,99875.53
2023-09-27T23:48:12.228Z,99873.41
2023-09-27T23:50:41.709Z,99884.66
2023-09-27T23:53:11.097Z,99875.84
2023-09-27T23:55:42.192Z,99880.66
2023-09-27T23:58:13.935Z,99887.75
